Portada
METAR-TAF:

METAR-TAF

Aeropuertos :

Tenerife, España

Aeropuerto de Tenerife Norte

latitud: 28-28N, longitud: 016-19W, altitud: 632 m

Observación

El informe se hizo hace 14 minutos, a las 21:00 UTC
Viento 7 kt del sureste, variando entre este-sureste y sur
Temperatura 17°C
Humedad 94%
Presión 1023 hPa
Visibilidad 10 km o más
Escasas nubes a una altura de 800 ft

METAR: GCXO 272100Z 14007KT 110V170 9999 FEW008 17/16 Q1023 NOSIG

Hora: 22:14 (21:14 UTC)

Pronóstico

El informe se hizo hace 1 hora y 14 minutos, a las 20:00 UTC
Pronóstico válido del 27 a las 21 UTC al 28 a las 21 UTC
Viento 8 kt del sureste
Visibilidad 10 km o más
Escasas nubes a una altura de 1000 ft

TAF: GCXO 272000Z 2721/2821 13008KT 9999 FEW010 TX21/2814Z TN17/2806Z

Observaciones y pronósticos meteorológicos de más de 4000 aeropuertos (mensajes METAR y TAF).

Los puntos amarillos y rojos representan las estaciones disponibles.

Ponga el ratón en el punto deseado para ver el nombre de la estación.

Haga clic para ver las observaciones y los pronósticos meteorológicos.

Para cambiar el mapa : haga clic en los botones verdes con una cruz de color negro para hacer un zoom, en el botón verde con un guión para alejar o en las flechas verdes para mapas adyacentes.


METAR-TAF: